sensor_id;sensor_type;location;lat;lon;timestamp;pressure;altitude;pressure_sealevel;temperature;humidity
62978;BME280;49073;42.352;23.808;2023-05-23T00:01:03;94555.22;;;10.94;94.64
62978;BME280;49073;42.352;23.808;2023-05-23T00:04:08;94556.94;;;10.83;95.96
62978;BME280;49073;42.352;23.808;2023-05-23T00:07:09;94550.59;;;10.91;97.20
62978;BME280;49073;42.352;23.808;2023-05-23T00:10:10;94546.47;;;10.70;97.46
62978;BME280;49073;42.352;23.808;2023-05-23T00:13:12;94545.28;;;10.68;98.16
62978;BME280;49073;42.352;23.808;2023-05-23T00:16:13;94552.38;;;10.83;98.80
62978;BME280;49073;42.352;23.808;2023-05-23T00:19:15;94554.19;;;11.02;96.25
62978;BME280;49073;42.352;23.808;2023-05-23T00:22:16;94542.78;;;10.79;95.18
62978;BME280;49073;42.352;23.808;2023-05-23T00:25:19;94544.00;;;10.85;96.63
62978;BME280;49073;42.352;23.808;2023-05-23T00:28:21;94546.25;;;10.83;96.96
62978;BME280;49073;42.352;23.808;2023-05-23T00:31:22;94551.03;;;10.97;96.04
62978;BME280;49073;42.352;23.808;2023-05-23T00:34:22;94553.19;;;10.87;92.70
62978;BME280;49073;42.352;23.808;2023-05-23T00:37:23;94547.34;;;10.78;94.25
62978;BME280;49073;42.352;23.808;2023-05-23T00:40:23;94547.66;;;10.73;93.44
62978;BME280;49073;42.352;23.808;2023-05-23T00:43:24;94556.66;;;10.65;95.09
62978;BME280;49073;42.352;23.808;2023-05-23T00:46:25;94542.56;;;10.64;96.54
62978;BME280;49073;42.352;23.808;2023-05-23T00:49:26;94543.06;;;10.73;94.56
62978;BME280;49073;42.352;23.808;2023-05-23T00:52:27;94538.84;;;10.69;94.95
62978;BME280;49073;42.352;23.808;2023-05-23T00:55:29;94546.25;;;10.56;94.01
62978;BME280;49073;42.352;23.808;2023-05-23T00:58:29;94542.50;;;10.60;94.75
62978;BME280;49073;42.352;23.808;2023-05-23T01:01:31;94543.50;;;10.52;95.51
62978;BME280;49073;42.352;23.808;2023-05-23T01:04:32;94543.50;;;10.52;97.74
62978;BME280;49073;42.352;23.808;2023-05-23T01:07:33;94552.16;;;10.45;97.99
62978;BME280;49073;42.352;23.808;2023-05-23T01:10:33;94545.66;;;10.23;99.18
62978;BME280;49073;42.352;23.808;2023-05-23T01:13:58;94540.81;;;10.29;99.53
62978;BME280;49073;42.352;23.808;2023-05-23T01:17:08;94540.44;;;10.50;99.21
62978;BME280;49073;42.352;23.808;2023-05-23T01:20:23;94544.59;;;10.47;97.73
62978;BME280;49073;42.352;23.808;2023-05-23T01:24:12;94539.59;;;10.46;95.21
62978;BME280;49073;42.352;23.808;2023-05-23T01:27:41;94546.75;;;10.42;94.72
62978;BME280;49073;42.352;23.808;2023-05-23T01:30:47;94542.28;;;10.26;96.39
62978;BME280;49073;42.352;23.808;2023-05-23T01:33:49;94549.78;;;10.21;94.65
62978;BME280;49073;42.352;23.808;2023-05-23T01:36:55;94545.38;;;10.28;95.74
62978;BME280;49073;42.352;23.808;2023-05-23T01:39:56;94546.25;;;10.13;94.43
62978;BME280;49073;42.352;23.808;2023-05-23T01:42:57;94536.06;;;10.18;95.23
62978;BME280;49073;42.352;23.808;2023-05-23T01:45:59;94530.06;;;10.02;94.37
62978;BME280;49073;42.352;23.808;2023-05-23T01:49:02;94534.56;;;9.98;94.06
62978;BME280;49073;42.352;23.808;2023-05-23T01:52:04;94530.56;;;9.88;93.96
62978;BME280;49073;42.352;23.808;2023-05-23T01:55:05;94526.31;;;9.83;96.05
62978;BME280;49073;42.352;23.808;2023-05-23T01:58:11;94527.16;;;9.87;95.71
62978;BME280;49073;42.352;23.808;2023-05-23T02:01:14;94523.22;;;9.61;96.18
62978;BME280;49073;42.352;23.808;2023-05-23T02:04:15;94521.19;;;9.74;96.87
62978;BME280;49073;42.352;23.808;2023-05-23T02:07:16;94516.38;;;9.60;97.26
62978;BME280;49073;42.352;23.808;2023-05-23T02:10:18;94532.25;;;9.77;99.34
62978;BME280;49073;42.352;23.808;2023-05-23T02:13:19;94533.66;;;9.90;98.38
62978;BME280;49073;42.352;23.808;2023-05-23T02:16:19;94524.78;;;9.82;94.91
62978;BME280;49073;42.352;23.808;2023-05-23T02:19:20;94521.41;;;9.85;95.13
62978;BME280;49073;42.352;23.808;2023-05-23T02:22:24;94530.50;;;9.65;96.11
62978;BME280;49073;42.352;23.808;2023-05-23T02:25:27;94529.53;;;9.53;97.27
62978;BME280;49073;42.352;23.808;2023-05-23T02:28:28;94530.44;;;9.61;97.78
62978;BME280;49073;42.352;23.808;2023-05-23T02:31:29;94533.13;;;9.61;96.20
62978;BME280;49073;42.352;23.808;2023-05-23T02:34:30;94532.13;;;9.69;94.18
62978;BME280;49073;42.352;23.808;2023-05-23T02:37:31;94527.56;;;9.50;93.38
62978;BME280;49073;42.352;23.808;2023-05-23T02:40:31;94529.06;;;9.48;94.10
62978;BME280;49073;42.352;23.808;2023-05-23T02:43:32;94524.50;;;9.48;94.13
62978;BME280;49073;42.352;23.808;2023-05-23T02:46:33;94522.94;;;9.47;93.93
62978;BME280;49073;42.352;23.808;2023-05-23T02:49:33;94522.34;;;9.54;94.77
62978;BME280;49073;42.352;23.808;2023-05-23T02:52:34;94521.41;;;9.46;95.29
62978;BME280;49073;42.352;23.808;2023-05-23T02:55:34;94523.88;;;9.55;95.55
62978;BME280;49073;42.352;23.808;2023-05-23T02:58:35;94521.31;;;9.42;93.92
62978;BME280;49073;42.352;23.808;2023-05-23T03:01:36;94523.56;;;9.40;95.84
62978;BME280;49073;42.352;23.808;2023-05-23T03:04:37;94524.50;;;9.48;95.36
62978;BME280;49073;42.352;23.808;2023-05-23T03:07:38;94515.91;;;9.55;93.15
62978;BME280;49073;42.352;23.808;2023-05-23T03:10:38;94521.91;;;9.52;93.87
62978;BME280;49073;42.352;23.808;2023-05-23T03:13:39;94519.38;;;9.39;95.64
62978;BME280;49073;42.352;23.808;2023-05-23T03:16:39;94529.91;;;9.52;95.26
62978;BME280;49073;42.352;23.808;2023-05-23T03:19:40;94533.69;;;9.51;94.92
62978;BME280;49073;42.352;23.808;2023-05-23T03:22:40;94523.59;;;9.60;94.07
62978;BME280;49073;42.352;23.808;2023-05-23T03:25:44;94523.50;;;9.56;92.61
62978;BME280;49073;42.352;23.808;2023-05-23T03:28:46;94522.66;;;9.52;94.16
62978;BME280;49073;42.352;23.808;2023-05-23T03:31:47;94524.91;;;9.50;95.09
62978;BME280;49073;42.352;23.808;2023-05-23T03:34:47;94526.16;;;9.56;95.59
62978;BME280;49073;42.352;23.808;2023-05-23T03:37:48;94521.06;;;9.67;95.75
62978;BME280;49073;42.352;23.808;2023-05-23T03:40:49;94525.69;;;9.70;96.81
62978;BME280;49073;42.352;23.808;2023-05-23T03:43:49;94519.88;;;9.65;97.37
62978;BME280;49073;42.352;23.808;2023-05-23T03:46:50;94525.81;;;9.78;97.49
62978;BME280;49073;42.352;23.808;2023-05-23T03:49:50;94522.13;;;9.82;97.71
62978;BME280;49073;42.352;23.808;2023-05-23T03:52:52;94519.91;;;9.88;97.86
62978;BME280;49073;42.352;23.808;2023-05-23T03:55:52;94525.09;;;10.00;97.86
62978;BME280;49073;42.352;23.808;2023-05-23T03:58:53;94521.09;;;10.10;97.59
62978;BME280;49073;42.352;23.808;2023-05-23T04:01:53;94521.16;;;10.14;97.21
62978;BME280;49073;42.352;23.808;2023-05-23T04:04:54;94521.41;;;10.28;98.16
62978;BME280;49073;42.352;23.808;2023-05-23T04:07:56;94517.94;;;10.28;98.36
62978;BME280;49073;42.352;23.808;2023-05-23T04:11:00;94520.38;;;10.37;99.19
62978;BME280;49073;42.352;23.808;2023-05-23T04:14:01;94522.50;;;10.47;99.46
62978;BME280;49073;42.352;23.808;2023-05-23T04:17:02;94518.88;;;10.59;99.88
62978;BME280;49073;42.352;23.808;2023-05-23T04:20:02;94518.94;;;10.62;100.00
62978;BME280;49073;42.352;23.808;2023-05-23T04:23:03;94513.13;;;10.80;100.00
62978;BME280;49073;42.352;23.808;2023-05-23T04:26:04;94529.81;;;10.77;100.00
62978;BME280;49073;42.352;23.808;2023-05-23T04:29:09;94522.66;;;10.81;100.00
62978;BME280;49073;42.352;23.808;2023-05-23T04:32:11;94527.16;;;10.77;100.00
62978;BME280;49073;42.352;23.808;2023-05-23T04:35:12;94529.56;;;10.86;100.00
62978;BME280;49073;42.352;23.808;2023-05-23T04:38:13;94525.00;;;10.86;100.00
62978;BME280;49073;42.352;23.808;2023-05-23T04:41:14;94527.88;;;11.01;100.00
62978;BME280;49073;42.352;23.808;2023-05-23T04:44:15;94525.69;;;11.06;100.00
62978;BME280;49073;42.352;23.808;2023-05-23T04:47:16;94526.59;;;11.18;100.00
62978;BME280;49073;42.352;23.808;2023-05-23T04:50:17;94531.34;;;11.32;100.00
62978;BME280;49073;42.352;23.808;2023-05-23T04:53:18;94545.81;;;11.31;100.00
62978;BME280;49073;42.352;23.808;2023-05-23T04:56:18;94542.94;;;11.43;100.00
62978;BME280;49073;42.352;23.808;2023-05-23T04:59:24;94536.19;;;11.53;100.00
62978;BME280;49073;42.352;23.808;2023-05-23T05:02:25;94536.38;;;11.68;100.00
62978;BME280;49073;42.352;23.808;2023-05-23T05:05:26;94539.44;;;11.70;99.66
62978;BME280;49073;42.352;23.808;2023-05-23T05:08:26;94546.06;;;11.79;99.79
62978;BME280;49073;42.352;23.808;2023-05-23T05:11:28;94537.97;;;11.76;100.00
62978;BME280;49073;42.352;23.808;2023-05-23T05:14:29;94537.19;;;11.75;100.00
62978;BME280;49073;42.352;23.808;2023-05-23T05:17:35;94543.69;;;11.74;100.00
62978;BME280;49073;42.352;23.808;2023-05-23T05:20:37;94542.72;;;11.90;100.00
62978;BME280;49073;42.352;23.808;2023-05-23T05:23:37;94550.34;;;11.91;100.00
62978;BME280;49073;42.352;23.808;2023-05-23T05:26:38;94546.94;;;11.91;100.00
62978;BME280;49073;42.352;23.808;2023-05-23T05:29:38;94552.47;;;11.75;100.00
62978;BME280;49073;42.352;23.808;2023-05-23T05:32:39;94551.28;;;11.72;100.00
62978;BME280;49073;42.352;23.808;2023-05-23T05:35:41;94548.81;;;11.90;100.00
62978;BME280;49073;42.352;23.808;2023-05-23T05:38:42;94559.69;;;12.05;100.00
62978;BME280;49073;42.352;23.808;2023-05-23T05:41:44;94557.19;;;12.19;100.00
62978;BME280;49073;42.352;23.808;2023-05-23T05:44:46;94557.31;;;12.34;100.00
62978;BME280;49073;42.352;23.808;2023-05-23T05:47:46;94558.56;;;12.44;100.00
62978;BME280;49073;42.352;23.808;2023-05-23T05:50:47;94554.47;;;12.57;100.00
62978;BME280;49073;42.352;23.808;2023-05-23T05:53:47;94555.63;;;12.60;100.00
62978;BME280;49073;42.352;23.808;2023-05-23T05:56:48;94558.41;;;12.71;100.00
62978;BME280;49073;42.352;23.808;2023-05-23T05:59:49;94555.03;;;12.81;100.00
62978;BME280;49073;42.352;23.808;2023-05-23T06:02:50;94554.69;;;12.86;100.00
62978;BME280;49073;42.352;23.808;2023-05-23T06:05:51;94556.38;;;13.02;100.00
62978;BME280;49073;42.352;23.808;2023-05-23T06:08:51;94561.41;;;13.14;100.00
62978;BME280;49073;42.352;23.808;2023-05-23T06:11:52;94559.25;;;13.34;100.00
62978;BME280;49073;42.352;23.808;2023-05-23T06:14:53;94552.06;;;13.46;100.00
62978;BME280;49073;42.352;23.808;2023-05-23T06:17:53;94547.91;;;13.56;100.00
62978;BME280;49073;42.352;23.808;2023-05-23T06:20:54;94549.09;;;13.65;100.00
62978;BME280;49073;42.352;23.808;2023-05-23T06:23:55;94555.34;;;13.95;100.00
62978;BME280;49073;42.352;23.808;2023-05-23T06:26:55;94543.50;;;14.10;100.00
62978;BME280;49073;42.352;23.808;2023-05-23T06:29:56;94546.56;;;14.13;100.00
62978;BME280;49073;42.352;23.808;2023-05-23T06:32:56;94545.09;;;14.37;100.00
62978;BME280;49073;42.352;23.808;2023-05-23T06:35:57;94542.44;;;14.44;100.00
62978;BME280;49073;42.352;23.808;2023-05-23T06:38:58;94543.97;;;14.63;100.00
62978;BME280;49073;42.352;23.808;2023-05-23T06:41:58;94535.53;;;14.68;99.28
62978;BME280;49073;42.352;23.808;2023-05-23T06:45:00;94539.03;;;14.83;100.00
62978;BME280;49073;42.352;23.808;2023-05-23T06:48:00;94540.19;;;14.93;100.00
62978;BME280;49073;42.352;23.808;2023-05-23T06:51:01;94540.19;;;15.01;97.95
62978;BME280;49073;42.352;23.808;2023-05-23T06:54:02;94536.34;;;15.12;94.81
62978;BME280;49073;42.352;23.808;2023-05-23T06:57:02;94535.91;;;15.28;96.67
62978;BME280;49073;42.352;23.808;2023-05-23T07:00:04;94532.81;;;15.48;94.71
62978;BME280;49073;42.352;23.808;2023-05-23T07:03:05;94530.03;;;15.70;88.43
62978;BME280;49073;42.352;23.808;2023-05-23T07:06:08;94524.25;;;15.79;78.61
62978;BME280;49073;42.352;23.808;2023-05-23T07:09:09;94529.53;;;16.04;75.52
62978;BME280;49073;42.352;23.808;2023-05-23T07:12:11;94531.41;;;16.11;72.99
62978;BME280;49073;42.352;23.808;2023-05-23T07:15:11;94530.53;;;16.36;75.75
62978;BME280;49073;42.352;23.808;2023-05-23T07:18:14;94517.75;;;16.51;71.61
62978;BME280;49073;42.352;23.808;2023-05-23T07:21:14;94524.59;;;16.59;72.22
62978;BME280;49073;42.352;23.808;2023-05-23T07:24:15;94524.50;;;16.70;73.49
62978;BME280;49073;42.352;23.808;2023-05-23T07:27:16;94520.97;;;16.80;71.16
62978;BME280;49073;42.352;23.808;2023-05-23T07:30:16;94526.38;;;16.80;71.57
62978;BME280;49073;42.352;23.808;2023-05-23T07:33:17;94521.19;;;17.00;73.93
62978;BME280;49073;42.352;23.808;2023-05-23T14:39:57;94351.25;;;22.35;42.65
62978;BME280;49073;42.352;23.808;2023-05-23T14:42:58;94347.03;;;22.21;41.72
62978;BME280;49073;42.352;23.808;2023-05-23T14:45:59;94346.63;;;22.10;41.51
62978;BME280;49073;42.352;23.808;2023-05-23T14:48:59;94351.31;;;22.09;43.09
62978;BME280;49073;42.352;23.808;2023-05-23T14:52:00;94351.50;;;22.02;41.19
62978;BME280;49073;42.352;23.808;2023-05-23T14:55:01;94345.31;;;22.15;44.71
62978;BME280;49073;42.352;23.808;2023-05-23T14:58:01;94345.34;;;22.02;39.26
62978;BME280;49073;42.352;23.808;2023-05-23T15:01:02;94346.31;;;22.08;39.59
62978;BME280;49073;42.352;23.808;2023-05-23T15:04:03;94347.41;;;21.98;41.93
62978;BME280;49073;42.352;23.808;2023-05-23T15:07:05;94351.53;;;21.76;40.88
62978;BME280;49073;42.352;23.808;2023-05-23T15:10:09;94355.63;;;21.55;40.02
62978;BME280;49073;42.352;23.808;2023-05-23T15:13:10;94342.44;;;21.70;41.76
62978;BME280;49073;42.352;23.808;2023-05-23T15:16:10;94338.19;;;21.69;41.66
62978;BME280;49073;42.352;23.808;2023-05-23T15:19:11;94339.88;;;21.50;42.10
62978;BME280;49073;42.352;23.808;2023-05-23T15:22:12;94337.41;;;21.56;40.80
62978;BME280;49073;42.352;23.808;2023-05-23T15:25:13;94334.69;;;21.56;40.01
62978;BME280;49073;42.352;23.808;2023-05-23T15:28:13;94332.72;;;21.43;40.54
62978;BME280;49073;42.352;23.808;2023-05-23T15:31:14;94334.56;;;21.46;41.28
62978;BME280;49073;42.352;23.808;2023-05-23T15:34:14;94334.25;;;21.31;41.02
62978;BME280;49073;42.352;23.808;2023-05-23T15:37:16;94328.81;;;21.31;40.87
62978;BME280;49073;42.352;23.808;2023-05-23T15:40:16;94320.91;;;21.24;41.14
62978;BME280;49073;42.352;23.808;2023-05-23T15:43:18;94326.44;;;21.33;42.11
62978;BME280;49073;42.352;23.808;2023-05-23T15:46:19;94318.38;;;21.17;41.95
62978;BME280;49073;42.352;23.808;2023-05-23T15:49:19;94323.47;;;21.15;42.71
62978;BME280;49073;42.352;23.808;2023-05-23T15:52:20;94329.41;;;21.10;43.39
62978;BME280;49073;42.352;23.808;2023-05-23T15:55:21;94325.94;;;20.96;42.52
62978;BME280;49073;42.352;23.808;2023-05-23T15:58:22;94319.94;;;20.88;41.96
62978;BME280;49073;42.352;23.808;2023-05-23T16:01:23;94322.97;;;20.90;42.33
62978;BME280;49073;42.352;23.808;2023-05-23T16:04:23;94327.97;;;20.92;43.52
62978;BME280;49073;42.352;23.808;2023-05-23T16:07:24;94330.25;;;20.93;43.32
62978;BME280;49073;42.352;23.808;2023-05-23T16:10:25;94333.75;;;20.77;43.39
62978;BME280;49073;42.352;23.808;2023-05-23T16:13:25;94327.25;;;20.75;44.48
62978;BME280;49073;42.352;23.808;2023-05-23T16:16:26;94337.56;;;20.80;44.60
62978;BME280;49073;42.352;23.808;2023-05-23T16:19:27;94328.50;;;20.87;44.71
62978;BME280;49073;42.352;23.808;2023-05-23T16:22:29;94327.16;;;20.49;44.96
62978;BME280;49073;42.352;23.808;2023-05-23T16:25:29;94337.94;;;20.19;49.58
62978;BME280;49073;42.352;23.808;2023-05-23T16:28:30;94343.38;;;19.66;55.79
62978;BME280;49073;42.352;23.808;2023-05-23T16:31:30;94349.81;;;19.36;57.43
62978;BME280;49073;42.352;23.808;2023-05-23T16:34:31;94361.47;;;19.12;58.40
62978;BME280;49073;42.352;23.808;2023-05-23T16:37:31;94365.91;;;19.02;59.62
62978;BME280;49073;42.352;23.808;2023-05-23T16:40:32;94362.16;;;18.96;59.96
62978;BME280;49073;42.352;23.808;2023-05-23T16:43:33;94372.38;;;18.85;60.73
62978;BME280;49073;42.352;23.808;2023-05-23T16:46:33;94376.91;;;18.48;61.33
62978;BME280;49073;42.352;23.808;2023-05-23T16:49:34;94379.59;;;18.48;62.28
62978;BME280;49073;42.352;23.808;2023-05-23T16:52:34;94382.34;;;18.44;61.96
62978;BME280;49073;42.352;23.808;2023-05-23T16:55:35;94382.69;;;18.46;62.57
62978;BME280;49073;42.352;23.808;2023-05-23T16:58:36;94382.53;;;18.57;62.71
62978;BME280;49073;42.352;23.808;2023-05-23T17:01:38;94379.94;;;18.50;62.57
62978;BME280;49073;42.352;23.808;2023-05-23T17:04:39;94380.19;;;18.35;62.81
62978;BME280;49073;42.352;23.808;2023-05-23T17:07:39;94377.50;;;18.35;62.82
62978;BME280;49073;42.352;23.808;2023-05-23T17:10:43;94380.53;;;18.37;63.07
62978;BME280;49073;42.352;23.808;2023-05-23T17:13:43;94387.25;;;18.49;63.62
62978;BME280;49073;42.352;23.808;2023-05-23T17:16:44;94382.25;;;18.71;65.52
62978;BME280;49073;42.352;23.808;2023-05-23T17:19:44;94387.53;;;18.79;65.49
62978;BME280;49073;42.352;23.808;2023-05-23T17:22:45;94397.22;;;18.76;66.24
62978;BME280;49073;42.352;23.808;2023-05-23T17:25:46;94395.13;;;18.64;66.87
62978;BME280;49073;42.352;23.808;2023-05-23T17:28:47;94385.53;;;18.39;67.58
62978;BME280;49073;42.352;23.808;2023-05-23T17:31:48;94397.25;;;18.05;69.43
62978;BME280;49073;42.352;23.808;2023-05-23T17:34:48;94396.50;;;17.73;70.55
62978;BME280;49073;42.352;23.808;2023-05-23T17:37:49;94400.28;;;17.48;72.45
62978;BME280;49073;42.352;23.808;2023-05-23T17:40:49;94406.47;;;17.14;73.05
62978;BME280;49073;42.352;23.808;2023-05-23T17:43:50;94402.56;;;16.80;73.88
62978;BME280;49073;42.352;23.808;2023-05-23T17:46:51;94407.63;;;16.75;75.82
62978;BME280;49073;42.352;23.808;2023-05-23T17:49:51;94395.66;;;16.79;74.71
62978;BME280;49073;42.352;23.808;2023-05-23T17:52:52;94398.66;;;16.89;73.42
62978;BME280;49073;42.352;23.808;2023-05-23T17:55:53;94406.91;;;16.70;73.56
62978;BME280;49073;42.352;23.808;2023-05-23T17:58:54;94411.03;;;16.37;74.69
62978;BME280;49073;42.352;23.808;2023-05-23T18:01:54;94408.03;;;16.27;74.23
62978;BME280;49073;42.352;23.808;2023-05-23T18:04:55;94416.19;;;16.13;75.45
62978;BME280;49073;42.352;23.808;2023-05-23T18:07:56;94416.19;;;16.17;75.40
62978;BME280;49073;42.352;23.808;2023-05-23T18:10:57;94422.22;;;16.28;75.80
62978;BME280;49073;42.352;23.808;2023-05-23T18:13:57;94425.28;;;16.34;74.93
62978;BME280;49073;42.352;23.808;2023-05-23T18:16:58;94427.66;;;16.21;75.06
62978;BME280;49073;42.352;23.808;2023-05-23T18:19:58;94436.69;;;15.92;75.97
62978;BME280;49073;42.352;23.808;2023-05-23T18:22:59;94452.88;;;15.74;76.91
62978;BME280;49073;42.352;23.808;2023-05-23T18:26:00;94454.75;;;15.88;76.62
62978;BME280;49073;42.352;23.808;2023-05-23T18:29:00;94458.97;;;15.93;76.25
62978;BME280;49073;42.352;23.808;2023-05-23T18:32:02;94463.56;;;15.89;75.97
62978;BME280;49073;42.352;23.808;2023-05-23T18:35:04;94466.31;;;15.78;76.62
62978;BME280;49073;42.352;23.808;2023-05-23T18:38:08;94464.03;;;15.69;75.97
62978;BME280;49073;42.352;23.808;2023-05-23T18:41:09;94466.38;;;15.56;76.70
62978;BME280;49073;42.352;23.808;2023-05-23T18:44:10;94461.13;;;15.34;77.62
62978;BME280;49073;42.352;23.808;2023-05-23T18:47:11;94476.06;;;15.32;78.00
62978;BME280;49073;42.352;23.808;2023-05-23T18:50:12;94481.06;;;15.33;77.42
62978;BME280;49073;42.352;23.808;2023-05-23T18:53:13;94481.47;;;15.17;77.19
62978;BME280;49073;42.352;23.808;2023-05-23T18:56:15;94488.41;;;15.15;77.04
62978;BME280;49073;42.352;23.808;2023-05-23T18:59:15;94492.25;;;15.03;78.26
62978;BME280;49073;42.352;23.808;2023-05-23T19:02:16;94493.78;;;14.96;78.88
62978;BME280;49073;42.352;23.808;2023-05-23T19:05:17;94493.41;;;14.94;78.52
62978;BME280;49073;42.352;23.808;2023-05-23T19:08:17;94497.25;;;14.75;79.37
62978;BME280;49073;42.352;23.808;2023-05-23T19:11:18;94499.56;;;14.77;79.31
62978;BME280;49073;42.352;23.808;2023-05-23T19:14:21;94508.78;;;14.76;78.48
62978;BME280;49073;42.352;23.808;2023-05-23T19:17:21;94509.88;;;14.67;78.35
62978;BME280;49073;42.352;23.808;2023-05-23T19:20:22;94511.03;;;14.55;78.27
62978;BME280;49073;42.352;23.808;2023-05-23T19:23:23;94515.63;;;14.40;79.22
62978;BME280;49073;42.352;23.808;2023-05-23T19:26:24;94534.00;;;14.38;79.23
62978;BME280;49073;42.352;23.808;2023-05-23T19:29:24;94522.88;;;14.25;78.89
62978;BME280;49073;42.352;23.808;2023-05-23T19:32:25;94529.75;;;14.12;80.25
62978;BME280;49073;42.352;23.808;2023-05-23T19:35:27;94537.00;;;14.11;80.83
62978;BME280;49073;42.352;23.808;2023-05-23T19:38:27;94539.72;;;14.22;79.37
62978;BME280;49073;42.352;23.808;2023-05-23T19:41:28;94537.00;;;14.11;78.98
62978;BME280;49073;42.352;23.808;2023-05-23T19:44:28;94548.81;;;13.96;79.64
62978;BME280;49073;42.352;23.808;2023-05-23T19:47:30;94558.75;;;13.85;79.60
62978;BME280;49073;42.352;23.808;2023-05-23T19:50:31;94554.44;;;13.65;81.32
62978;BME280;49073;42.352;23.808;2023-05-23T19:53:33;94552.19;;;13.75;81.07
62978;BME280;49073;42.352;23.808;2023-05-23T19:56:33;94560.97;;;13.68;81.35
62978;BME280;49073;42.352;23.808;2023-05-23T19:59:35;94555.63;;;13.68;81.00
62978;BME280;49073;42.352;23.808;2023-05-23T20:02:36;94548.72;;;13.71;80.12
62978;BME280;49073;42.352;23.808;2023-05-23T20:05:36;94556.75;;;13.67;79.83
62978;BME280;49073;42.352;23.808;2023-05-23T20:08:37;94558.63;;;13.56;80.33
62978;BME280;49073;42.352;23.808;2023-05-23T20:11:37;94567.75;;;13.47;80.40
62978;BME280;49073;42.352;23.808;2023-05-23T20:14:38;94566.13;;;13.35;80.96
62978;BME280;49073;42.352;23.808;2023-05-23T20:17:39;94567.16;;;13.16;81.94
62978;BME280;49073;42.352;23.808;2023-05-23T20:20:39;94567.56;;;13.18;82.45
62978;BME280;49073;42.352;23.808;2023-05-23T20:23:41;94559.78;;;13.02;83.81
62978;BME280;49073;42.352;23.808;2023-05-23T20:26:44;94565.97;;;13.10;83.57
62978;BME280;49073;42.352;23.808;2023-05-23T20:29:45;94566.59;;;12.92;84.74
62978;BME280;49073;42.352;23.808;2023-05-23T20:32:46;94567.41;;;12.97;83.08
62978;BME280;49073;42.352;23.808;2023-05-23T20:35:47;94563.16;;;12.92;83.16
62978;BME280;49073;42.352;23.808;2023-05-23T20:38:48;94566.59;;;12.92;83.37
62978;BME280;49073;42.352;23.808;2023-05-23T20:41:49;94560.78;;;12.83;84.46
62978;BME280;49073;42.352;23.808;2023-05-23T20:44:50;94568.03;;;12.79;85.18
62978;BME280;49073;42.352;23.808;2023-05-23T20:47:50;94569.22;;;12.85;85.09
62978;BME280;49073;42.352;23.808;2023-05-23T20:50:54;94577.03;;;13.05;83.98
62978;BME280;49073;42.352;23.808;2023-05-23T20:53:59;94560.97;;;13.08;83.01
62978;BME280;49073;42.352;23.808;2023-05-23T20:57:00;94569.75;;;13.02;81.83
62978;BME280;49073;42.352;23.808;2023-05-23T21:00:03;94568.50;;;12.92;82.28
62978;BME280;49073;42.352;23.808;2023-05-23T21:03:13;94571.94;;;12.92;81.99
62978;BME280;49073;42.352;23.808;2023-05-23T21:06:13;94555.84;;;12.85;82.25
62978;BME280;49073;42.352;23.808;2023-05-23T21:09:14;94565.72;;;12.77;82.82
62978;BME280;49073;42.352;23.808;2023-05-23T21:12:18;94560.31;;;12.70;83.32
62978;BME280;49073;42.352;23.808;2023-05-23T21:15:19;94567.25;;;12.78;82.42
62978;BME280;49073;42.352;23.808;2023-05-23T21:18:20;94563.28;;;12.61;82.20
62978;BME280;49073;42.352;23.808;2023-05-23T21:21:21;94569.38;;;12.58;82.83
62978;BME280;49073;42.352;23.808;2023-05-23T21:24:22;94565.44;;;12.45;83.71
62978;BME280;49073;42.352;23.808;2023-05-23T21:27:22;94565.00;;;12.39;83.53
62978;BME280;49073;42.352;23.808;2023-05-23T21:30:23;94573.31;;;12.30;84.91
62978;BME280;49073;42.352;23.808;2023-05-23T21:33:23;94579.84;;;12.36;84.30
62978;BME280;49073;42.352;23.808;2023-05-23T21:36:24;94575.69;;;12.39;83.14
62978;BME280;49073;42.352;23.808;2023-05-23T21:39:24;94590.41;;;12.22;84.33
62978;BME280;49073;42.352;23.808;2023-05-23T21:42:25;94587.31;;;12.20;84.02
62978;BME280;49073;42.352;23.808;2023-05-23T21:45:25;94575.09;;;12.19;83.89
62978;BME280;49073;42.352;23.808;2023-05-23T21:48:26;94575.44;;;12.14;84.51
62978;BME280;49073;42.352;23.808;2023-05-23T21:51:26;94562.72;;;12.03;85.53
62978;BME280;49073;42.352;23.808;2023-05-23T21:54:27;94570.41;;;12.08;85.76
62978;BME280;49073;42.352;23.808;2023-05-23T21:57:27;94571.28;;;12.16;85.43
62978;BME280;49073;42.352;23.808;2023-05-23T22:00:28;94575.88;;;12.19;85.22
62978;BME280;49073;42.352;23.808;2023-05-23T22:03:28;94579.72;;;12.22;84.25
62978;BME280;49073;42.352;23.808;2023-05-23T22:06:29;94582.69;;;12.13;84.52
62978;BME280;49073;42.352;23.808;2023-05-23T22:09:30;94578.03;;;12.06;84.43
62978;BME280;49073;42.352;23.808;2023-05-23T22:12:30;94577.56;;;12.01;84.92
62978;BME280;49073;42.352;23.808;2023-05-23T22:15:31;94583.78;;;12.08;84.08
62978;BME280;49073;42.352;23.808;2023-05-23T22:18:32;94583.31;;;12.03;83.19
62978;BME280;49073;42.352;23.808;2023-05-23T22:21:35;94579.31;;;11.89;84.11
62978;BME280;49073;42.352;23.808;2023-05-23T22:24:40;94587.31;;;11.86;85.43
62978;BME280;49073;42.352;23.808;2023-05-23T22:27:40;94590.59;;;11.75;85.70
62978;BME280;49073;42.352;23.808;2023-05-23T22:30:41;94587.56;;;11.77;86.83
62978;BME280;49073;42.352;23.808;2023-05-23T22:33:41;94579.06;;;11.98;84.53
62978;BME280;49073;42.352;23.808;2023-05-23T22:36:42;94578.50;;;11.85;85.00
62978;BME280;49073;42.352;23.808;2023-05-23T22:39:43;94578.03;;;11.76;85.10
62978;BME280;49073;42.352;23.808;2023-05-23T22:42:44;94572.94;;;11.63;85.36
62978;BME280;49073;42.352;23.808;2023-05-23T22:45:45;94565.88;;;11.78;83.87
62978;BME280;49073;42.352;23.808;2023-05-23T22:48:46;94566.13;;;11.70;84.77
62978;BME280;49073;42.352;23.808;2023-05-23T22:51:47;94573.25;;;11.58;85.85